Time,TemperatureF,DewpointF,PressureIn,WindDirection,WindDirectionDegrees,WindSpeedMPH,WindSpeedGustMPH,Humidity,HourlyPrecipIn,Conditions,Clouds,dailyrainin,SoftwareType,DateUTC
2013-06-18 00:00:00,53.2,47.2,29.92,NE,49,3.0,5.0,80,0.00,CLR,,0.00,WeatherDisplay:10.37,2013-06-17 23:00:00,
2013-06-18 00:10:00,53.3,47.7,29.92,ENE,58,2.0,5.0,81,0.00,CLR,,0.00,WeatherDisplay:10.37,2013-06-17 23:10:00,
2013-06-18 00:20:00,53.3,47.6,29.92,ENE,58,1.0,3.0,81,0.00,CLR,,0.00,WeatherDisplay:10.37,2013-06-17 23:20:00,
2013-06-18 00:30:00,53.4,47.7,29.92,ENE,63,2.0,4.0,81,0.00,CLR,,0.00,WeatherDisplay:10.37,2013-06-17 23:30:00,
2013-06-18 00:40:00,53.2,47.6,29.92,East,86,0.0,2.0,81,0.00,CLR,,0.00,WeatherDisplay:10.37,2013-06-17 23:40:00,
2013-06-18 00:50:00,53.1,47.1,29.91,East,80,1.0,2.0,80,0.00,CLR,,0.00,WeatherDisplay:10.37,2013-06-17 23:50:00,
2013-06-18 01:00:00,53.0,47.0,29.91,ENE,71,2.0,2.0,80,0.00,CLR,,0.00,WeatherDisplay:10.37,2013-06-18 00:00:00,
2013-06-18 01:10:00,52.6,46.9,29.91,ENE,68,0.0,2.0,81,0.00,CLR,,0.00,WeatherDisplay:10.37,2013-06-18 00:10:00,
2013-06-18 01:20:00,52.3,46.7,29.91,SSW,195,1.0,3.0,81,0.00,CLR,,0.00,WeatherDisplay:10.37,2013-06-18 00:20:00,
2013-06-18 01:30:00,52.2,46.5,29.92,SW,222,5.0,6.0,81,0.00,CLR,,0.00,WeatherDisplay:10.37,2013-06-18 00:30:00,
2013-06-18 01:40:00,52.0,46.7,29.92,SW,233,1.0,7.0,82,0.00,CLR,,0.00,WeatherDisplay:10.37,2013-06-18 00:40:00,
2013-06-18 01:50:00,51.8,46.5,29.91,SW,232,1.0,5.0,82,0.00,CLR,,0.00,WeatherDisplay:10.37,2013-06-18 00:50:00,
2013-06-18 02:00:00,51.4,46.1,29.91,SW,225,0.0,4.0,82,0.00,CLR,,0.00,WeatherDisplay:10.37,2013-06-18 01:00:00,
2013-06-18 02:10:00,51.4,46.1,29.91,SW,214,1.0,3.0,82,0.00,CLR,,0.00,WeatherDisplay:10.37,2013-06-18 01:10:00,
2013-06-18 02:20:00,51.3,46.0,29.91,SSW,202,1.0,2.0,82,0.00,CLR,,0.00,WeatherDisplay:10.37,2013-06-18 01:20:00,
2013-06-18 02:30:00,51.3,46.3,29.91,SW,225,0.0,3.0,83,0.00,CLR,,0.00,WeatherDisplay:10.37,2013-06-18 01:30:00,
2013-06-18 02:40:00,51.3,46.3,29.91,SW,225,2.0,4.0,83,0.00,CLR,,0.00,WeatherDisplay:10.37,2013-06-18 01:40:00,
2013-06-18 02:50:00,51.3,46.3,29.91,SW,225,2.0,3.0,83,0.00,CLR,,0.00,WeatherDisplay:10.37,2013-06-18 01:50:00,
2013-06-18 03:00:00,51.3,46.6,29.90,SW,224,1.0,4.0,84,0.00,CLR,,0.00,WeatherDisplay:10.37,2013-06-18 02:00:00,
2013-06-18 03:10:00,51.3,46.6,29.90,SW,225,2.0,3.0,84,0.00,CLR,,0.00,WeatherDisplay:10.37,2013-06-18 02:10:00,
2013-06-18 03:20:00,51.2,46.6,29.89,SW,225,2.0,3.0,84,0.00,CLR,,0.00,WeatherDisplay:10.37,2013-06-18 02:20:00,
2013-06-18 03:40:00,50.9,46.2,29.89,SW,225,1.0,3.0,84,0.00,CLR,,0.00,WeatherDisplay:10.37,2013-06-18 02:40:00,
2013-06-18 03:50:00,50.9,46.2,29.88,SW,225,2.0,4.0,84,0.00,CLR,,0.00,WeatherDisplay:10.37,2013-06-18 02:50:00,
2013-06-18 04:00:00,50.9,46.9,29.88,SW,225,1.0,3.0,86,0.00,CLR,,0.00,WeatherDisplay:10.37,2013-06-18 03:00:00,
2013-06-18 04:10:00,50.8,46.8,29.88,SW,225,1.0,5.0,86,0.00,CLR,,0.00,WeatherDisplay:10.37,2013-06-18 03:10:00,
2013-06-18 04:20:00,50.7,46.7,29.88,SW,225,3.0,4.0,86,0.00,CLR,,0.00,WeatherDisplay:10.37,2013-06-18 03:20:00,
2013-06-18 04:30:00,50.7,46.7,29.88,SW,225,2.0,5.0,86,0.00,CLR,,0.00,WeatherDisplay:10.37,2013-06-18 03:30:00,
2013-06-18 04:40:00,50.7,46.7,29.88,SW,225,2.0,4.0,86,0.00,CLR,,0.00,WeatherDisplay:10.37,2013-06-18 03:40:00,
2013-06-18 04:50:00,50.5,46.8,29.88,SW,225,1.0,4.0,87,0.00,CLR,,0.00,WeatherDisplay:10.37,2013-06-18 03:50:00,
2013-06-18 05:00:00,50.7,47.0,29.87,SW,225,1.0,2.0,87,0.00,CLR,,0.00,WeatherDisplay:10.37,2013-06-18 04:00:00,
2013-06-18 05:10:00,50.7,47.0,29.87,SW,225,0.0,2.0,87,0.00,CLR,,0.00,WeatherDisplay:10.37,2013-06-18 04:10:00,
2013-06-18 05:20:00,50.7,47.0,29.87,SW,225,1.0,1.0,87,0.00,CLR,,0.00,WeatherDisplay:10.37,2013-06-18 04:20:00,
2013-06-18 05:30:00,50.7,47.0,29.88,SW,225,1.0,2.0,87,0.00,CLR,,0.00,WeatherDisplay:10.37,2013-06-18 04:30:00,
2013-06-18 05:40:00,50.9,47.2,29.87,SW,225,0.0,2.0,87,0.00,CLR,,0.00,WeatherDisplay:10.37,2013-06-18 04:40:00,
2013-06-18 05:50:00,50.9,47.2,29.87,SW,225,1.0,2.0,87,0.00,CLR,,0.00,WeatherDisplay:10.37,2013-06-18 04:50:00,
2013-06-18 06:00:00,51.4,47.7,29.88,SW,214,5.0,6.0,87,0.00,CLR,,0.00,WeatherDisplay:10.37,2013-06-18 05:00:00,
2013-06-18 06:10:00,51.4,47.7,29.87,SW,215,0.0,3.0,87,0.00,CLR,,0.00,WeatherDisplay:10.37,2013-06-18 05:10:00,
2013-06-18 06:20:00,52.0,48.5,29.87,SSW,202,1.0,3.0,88,0.00,CLR,,0.00,WeatherDisplay:10.37,2013-06-18 05:20:00,
2013-06-18 06:30:00,52.2,48.8,29.87,SSW,202,2.0,3.0,88,0.00,CLR,,0.00,WeatherDisplay:10.37,2013-06-18 05:30:00,
2013-06-18 06:40:00,52.5,49.1,29.86,SW,222,5.0,7.0,88,0.00,CLR,,0.00,WeatherDisplay:10.37,2013-06-18 05:40:00,
2013-06-18 06:50:00,52.3,49.2,29.87,SW,225,5.0,6.0,89,0.00,CLR,,0.00,WeatherDisplay:10.37,2013-06-18 05:50:00,
2013-06-18 07:00:00,52.5,49.4,29.87,SW,225,3.0,6.0,89,0.00,CLR,,0.00,WeatherDisplay:10.37,2013-06-18 06:00:00,
2013-06-18 07:10:00,52.2,49.0,29.87,SW,217,3.0,6.0,89,0.00,CLR,,0.00,WeatherDisplay:10.37,2013-06-18 06:10:00,
2013-06-18 07:20:00,52.1,49.0,29.88,SW,235,2.0,5.0,89,0.00,CLR,,0.00,WeatherDisplay:10.37,2013-06-18 06:20:00,
2013-06-18 07:30:00,52.2,49.0,29.87,SW,225,1.0,4.0,89,0.00,CLR,,0.00,WeatherDisplay:10.37,2013-06-18 06:30:00,
2013-06-18 07:40:00,52.3,49.2,29.87,SW,225,2.0,3.0,89,0.00,CLR,,0.00,WeatherDisplay:10.37,2013-06-18 06:40:00,
2013-06-18 07:50:00,53.1,49.9,29.87,SW,225,2.0,3.0,89,0.00,CLR,,0.00,WeatherDisplay:10.37,2013-06-18 06:50:00,
2013-06-18 08:00:00,53.3,50.1,29.88,SW,225,0.0,1.0,89,0.00,CLR,,0.00,WeatherDisplay:10.37,2013-06-18 07:00:00,
2013-06-18 08:40:00,57.0,53.5,29.87,SSW,202,0.0,4.0,88,0.00,CLR,,0.00,WeatherDisplay:10.37,2013-06-18 07:40:00,
2013-06-18 08:50:00,58.1,54.6,29.87,East,91,1.0,3.0,88,0.00,CLR,,0.00,WeatherDisplay:10.37,2013-06-18 07:50:00,
2013-06-18 09:00:00,58.5,54.6,29.87,East,91,2.0,4.0,87,0.00,CLR,,0.00,WeatherDisplay:10.37,2013-06-18 08:00:00,
2013-06-18 09:10:00,58.1,53.9,29.87,East,83,3.0,6.0,86,0.00,CLR,,0.00,WeatherDisplay:10.37,2013-06-18 08:10:00,
2013-06-18 09:20:00,58.1,53.3,29.87,East,85,3.0,6.0,84,0.00,CLR,,0.00,WeatherDisplay:10.37,2013-06-18 08:20:00,
2013-06-18 09:30:00,59.0,54.2,29.86,East,83,1.0,6.0,84,0.00,CLR,,0.00,WeatherDisplay:10.37,2013-06-18 08:30:00,
2013-06-18 09:40:00,60.5,55.0,29.87,East,94,1.0,5.0,82,0.00,CLR,,0.00,WeatherDisplay:10.37,2013-06-18 08:40:00,
2013-06-18 09:50:00,61.5,55.3,29.87,East,81,5.0,7.0,80,0.00,CLR,,0.00,WeatherDisplay:10.37,2013-06-18 08:50:00,
2013-06-18 10:00:00,62.4,55.1,29.86,ENE,78,3.0,12.0,77,0.00,CLR,,0.00,WeatherDisplay:10.37,2013-06-18 09:00:00,
2013-06-18 10:10:00,63.9,55.5,29.86,East,92,3.0,12.0,74,0.00,CLR,,0.00,WeatherDisplay:10.37,2013-06-18 09:10:00,
2013-06-18 10:20:00,65.8,54.6,29.86,SE,136,1.0,9.0,67,0.00,CLR,,0.00,WeatherDisplay:10.37,2013-06-18 09:20:00,
2013-06-18 10:30:00,68.3,54.8,29.85,South,178,3.0,5.0,62,0.00,CLR,,0.00,WeatherDisplay:10.37,2013-06-18 09:30:00,
2013-06-18 10:40:00,70.0,54.1,29.85,SW,214,2.0,13.0,57,0.00,CLR,,0.00,WeatherDisplay:10.37,2013-06-18 09:40:00,
2013-06-18 10:50:00,69.4,50.5,29.85,SW,219,7.0,11.0,51,0.00,CLR,,0.00,WeatherDisplay:10.37,2013-06-18 09:50:00,
2013-06-18 11:00:00,70.5,50.4,29.85,SSW,195,3.0,8.0,49,0.00,CLR,,0.00,WeatherDisplay:10.37,2013-06-18 10:00:00,
2013-06-18 11:10:00,69.3,48.2,29.85,SSW,210,8.0,9.0,47,0.00,CLR,,0.00,WeatherDisplay:10.37,2013-06-18 10:10:00,
2013-06-18 11:20:00,68.9,48.9,29.85,SSW,205,1.0,8.0,49,0.00,CLR,,0.00,WeatherDisplay:10.37,2013-06-18 10:20:00,
2013-06-18 11:30:00,69.2,49.2,29.85,SW,217,6.0,8.0,49,0.00,CLR,,0.00,WeatherDisplay:10.37,2013-06-18 10:30:00,
2013-06-18 11:40:00,68.9,48.9,29.85,SSW,196,7.0,10.0,49,0.00,CLR,,0.00,WeatherDisplay:10.37,2013-06-18 10:40:00,
2013-06-18 11:50:00,69.1,49.7,29.85,South,187,2.0,10.0,50,0.00,CLR,,0.00,WeatherDisplay:10.37,2013-06-18 10:50:00,
2013-06-18 12:00:00,68.5,50.2,29.85,WSW,254,2.0,10.0,52,0.00,CLR,,0.00,WeatherDisplay:10.37,2013-06-18 11:00:00,
2013-06-18 12:10:00,70.1,52.1,29.84,SSW,192,1.0,5.0,53,0.00,CLR,,0.00,WeatherDisplay:10.37,2013-06-18 11:10:00,
2013-06-18 12:20:00,71.2,50.5,29.84,ESE,104,2.0,5.0,48,0.00,CLR,,0.00,WeatherDisplay:10.37,2013-06-18 11:20:00,
2013-06-18 12:30:00,70.0,49.4,29.84,South,185,6.0,10.0,48,0.00,CLR,,0.00,WeatherDisplay:10.37,2013-06-18 11:30:00,
2013-06-18 12:40:00,69.6,50.2,29.84,SW,222,1.0,2.0,50,0.00,CLR,,0.00,WeatherDisplay:10.37,2013-06-18 11:40:00,
2013-06-18 12:50:00,69.4,49.4,29.84,SE,134,2.0,8.0,49,0.00,CLR,,0.00,WeatherDisplay:10.37,2013-06-18 11:50:00,
2013-06-18 13:00:00,68.9,48.9,29.84,WNW,299,1.0,6.0,49,0.00,CLR,,0.00,WeatherDisplay:10.37,2013-06-18 12:00:00,
2013-06-18 13:10:00,70.2,50.1,29.84,South,169,2.0,8.0,49,0.00,CLR,,0.00,WeatherDisplay:10.37,2013-06-18 12:10:00,
2013-06-18 13:20:00,71.3,49.5,29.83,SSW,207,2.0,7.0,46,0.00,CLR,,0.00,WeatherDisplay:10.37,2013-06-18 12:20:00,
2013-06-18 13:30:00,70.7,48.3,29.83,SSW,211,3.0,9.0,45,0.00,CLR,,0.00,WeatherDisplay:10.37,2013-06-18 12:30:00,
2013-06-18 13:40:00,69.6,47.3,29.83,SSW,194,3.0,12.0,45,0.00,CLR,,0.00,WeatherDisplay:10.37,2013-06-18 12:40:00,
2013-06-18 13:50:00,70.2,48.5,29.83,SW,228,1.0,11.0,46,0.00,CLR,,0.00,WeatherDisplay:10.37,2013-06-18 12:50:00,
2013-06-18 14:00:00,70.4,48.0,29.83,SSW,194,3.0,7.0,45,0.00,CLR,,0.00,WeatherDisplay:10.37,2013-06-18 13:00:00,
2013-06-18 14:10:00,70.7,48.3,29.82,WSW,242,2.0,7.0,45,0.00,CLR,,0.00,WeatherDisplay:10.37,2013-06-18 13:10:00,
2013-06-18 14:20:00,70.7,48.3,29.82,WSW,245,2.0,8.0,45,0.00,CLR,,0.00,WeatherDisplay:10.37,2013-06-18 13:20:00,
2013-06-18 14:30:00,70.2,48.4,29.83,West,273,2.0,5.0,46,0.00,CLR,,0.00,WeatherDisplay:10.37,2013-06-18 13:30:00,
2013-06-18 14:40:00,70.5,48.7,29.83,WSW,243,2.0,5.0,46,0.00,CLR,,0.00,WeatherDisplay:10.37,2013-06-18 13:40:00,
2013-06-18 14:50:00,71.4,49.0,29.82,WSW,239,1.0,9.0,45,0.00,CLR,,0.00,WeatherDisplay:10.37,2013-06-18 13:50:00,
2013-06-18 15:00:00,71.6,48.5,29.82,WSW,247,2.0,6.0,44,0.00,CLR,,0.00,WeatherDisplay:10.37,2013-06-18 14:00:00,
2013-06-18 15:10:00,71.1,47.4,29.82,WSW,238,5.0,8.0,43,0.00,CLR,,0.00,WeatherDisplay:10.37,2013-06-18 14:10:00,
2013-06-18 15:20:00,70.7,47.7,29.82,West,270,3.0,6.0,44,0.00,CLR,,0.00,WeatherDisplay:10.37,2013-06-18 14:20:00,
2013-06-18 15:30:00,70.5,48.7,29.82,WSW,252,2.0,9.0,46,0.00,CLR,,0.00,WeatherDisplay:10.37,2013-06-18 14:30:00,
2013-06-18 15:40:00,69.6,47.3,29.82,West,265,2.0,6.0,45,0.00,CLR,,0.00,WeatherDisplay:10.37,2013-06-18 14:40:00,
2013-06-18 15:50:00,69.4,47.8,29.81,WSW,240,2.0,6.0,46,0.00,CLR,,0.00,WeatherDisplay:10.37,2013-06-18 14:50:00,
2013-06-18 16:00:00,70.0,49.4,29.81,West,266,2.0,6.0,48,0.00,CLR,,0.00,WeatherDisplay:10.37,2013-06-18 15:00:00,
2013-06-18 16:10:00,70.3,49.7,29.81,WNW,298,2.0,5.0,48,0.00,CLR,,0.00,WeatherDisplay:10.37,2013-06-18 15:10:00,
2013-06-18 16:20:00,70.7,48.9,29.81,WNW,298,3.0,6.0,46,0.00,CLR,,0.00,WeatherDisplay:10.37,2013-06-18 15:20:00,
2013-06-18 16:30:00,70.2,48.4,29.81,NW,306,2.0,8.0,46,0.00,CLR,,0.00,WeatherDisplay:10.37,2013-06-18 15:30:00,
2013-06-18 16:40:00,70.8,49.0,29.80,WSW,252,3.0,6.0,46,0.00,CLR,,0.00,WeatherDisplay:10.37,2013-06-18 15:40:00,
2013-06-18 16:50:00,71.1,48.6,29.81,West,269,2.0,7.0,45,0.00,CLR,,0.00,WeatherDisplay:10.37,2013-06-18 15:50:00,
2013-06-18 17:00:00,71.1,48.6,29.81,WSW,247,2.0,8.0,45,0.00,CLR,,0.00,WeatherDisplay:10.37,2013-06-18 16:00:00,
2013-06-18 17:10:00,70.5,48.1,29.81,WNW,284,2.0,11.0,45,0.00,CLR,,0.00,WeatherDisplay:10.37,2013-06-18 16:10:00,
2013-06-18 17:20:00,70.0,48.2,29.81,West,267,5.0,9.0,46,0.00,CLR,,0.00,WeatherDisplay:10.37,2013-06-18 16:20:00,
2013-06-18 17:30:00,68.9,47.8,29.81,SW,233,8.0,13.0,47,0.00,CLR,,0.00,WeatherDisplay:10.37,2013-06-18 16:30:00,
2013-06-18 17:40:00,68.4,49.0,29.81,WSW,250,2.0,9.0,50,0.00,CLR,,0.00,WeatherDisplay:10.37,2013-06-18 16:40:00,
2013-06-18 17:50:00,67.2,48.5,29.81,West,275,9.0,11.0,51,0.00,CLR,,0.00,WeatherDisplay:10.37,2013-06-18 16:50:00,
2013-06-18 18:00:00,66.7,49.1,29.81,WNW,289,9.0,13.0,53,0.00,CLR,,0.00,WeatherDisplay:10.37,2013-06-18 17:00:00,
2013-06-18 18:10:00,66.9,49.2,29.81,WNW,294,7.0,13.0,53,0.00,CLR,,0.00,WeatherDisplay:10.37,2013-06-18 17:10:00,
2013-06-18 18:20:00,66.7,49.0,29.81,West,271,2.0,7.0,53,0.00,CLR,,0.00,WeatherDisplay:10.37,2013-06-18 17:20:00,
2013-06-18 18:30:00,69.6,51.2,29.81,WSW,245,2.0,7.0,52,0.00,CLR,,0.00,WeatherDisplay:10.37,2013-06-18 17:30:00,
2013-06-18 18:40:00,72.3,50.9,29.81,West,272,2.0,6.0,47,0.00,CLR,,0.00,WeatherDisplay:10.37,2013-06-18 17:40:00,
2013-06-18 18:50:00,69.5,47.2,29.81,West,269,3.0,10.0,45,0.00,CLR,,0.00,WeatherDisplay:10.37,2013-06-18 17:50:00,
2013-06-18 19:00:00,65.8,46.1,29.81,WNW,296,8.0,12.0,49,0.00,CLR,,0.00,WeatherDisplay:10.37,2013-06-18 18:00:00,
2013-06-18 19:10:00,66.1,46.9,29.81,WNW,284,7.0,11.0,50,0.00,CLR,,0.00,WeatherDisplay:10.37,2013-06-18 18:10:00,
2013-06-18 19:20:00,65.8,47.2,29.81,WNW,292,10.0,14.0,51,0.00,CLR,,0.00,WeatherDisplay:10.37,2013-06-18 18:20:00,
2013-06-18 19:30:00,68.3,48.9,29.81,WNW,282,6.0,12.0,50,0.00,CLR,,0.00,WeatherDisplay:10.37,2013-06-18 18:30:00,
2013-06-18 19:40:00,69.4,47.7,29.81,WNW,292,5.0,18.0,46,0.00,CLR,,0.00,WeatherDisplay:10.37,2013-06-18 18:40:00,
2013-06-18 19:50:00,68.3,46.1,29.81,WNW,287,8.0,13.0,45,0.00,CLR,,0.00,WeatherDisplay:10.37,2013-06-18 18:50:00,
2013-06-18 20:00:00,68.5,47.5,29.81,WNW,286,8.0,11.0,47,0.00,CLR,,0.00,WeatherDisplay:10.37,2013-06-18 19:00:00,
2013-06-18 20:10:00,65.8,45.6,29.81,West,277,6.0,12.0,48,0.00,CLR,,0.00,WeatherDisplay:10.37,2013-06-18 19:10:00,
2013-06-18 20:20:00,63.5,45.0,29.81,WNW,292,7.0,12.0,51,0.00,CLR,,0.00,WeatherDisplay:10.37,2013-06-18 19:20:00,
2013-06-18 20:30:00,62.3,45.4,29.81,WNW,285,7.0,12.0,54,0.00,CLR,,0.00,WeatherDisplay:10.37,2013-06-18 19:30:00,
2013-06-18 20:40:00,61.5,45.2,29.82,West,269,5.0,9.0,55,0.00,CLR,,0.00,WeatherDisplay:10.37,2013-06-18 19:40:00,
2013-06-18 20:50:00,61.0,45.7,29.82,WNW,284,5.0,10.0,57,0.00,CLR,,0.00,WeatherDisplay:10.37,2013-06-18 19:50:00,
2013-06-18 21:00:00,60.4,46.0,29.81,West,278,8.0,12.0,59,0.00,CLR,,0.00,WeatherDisplay:10.37,2013-06-18 20:00:00,
2013-06-18 21:10:00,59.7,45.8,29.82,West,268,7.0,12.0,60,0.00,CLR,,0.00,WeatherDisplay:10.37,2013-06-18 20:10:00,
2013-06-18 21:20:00,59.2,45.7,29.82,WNW,285,6.0,11.0,61,0.00,CLR,,0.00,WeatherDisplay:10.37,2013-06-18 20:20:00,
2013-06-18 21:30:00,58.2,45.3,29.82,WNW,286,7.0,11.0,62,0.00,CLR,,0.00,WeatherDisplay:10.37,2013-06-18 20:30:00,
2013-06-18 21:40:00,57.9,46.2,29.83,WNW,292,3.0,10.0,65,0.00,CLR,,0.00,WeatherDisplay:10.37,2013-06-18 20:40:00,
2013-06-18 21:50:00,57.1,45.9,29.83,WNW,291,3.0,8.0,66,0.00,CLR,,0.00,WeatherDisplay:10.37,2013-06-18 20:50:00,
2013-06-18 22:00:00,56.5,45.7,29.84,WNW,291,3.0,8.0,67,0.00,CLR,,0.00,WeatherDisplay:10.37,2013-06-18 21:00:00,
2013-06-18 22:10:00,55.8,45.8,29.84,West,278,3.0,6.0,69,0.00,CLR,,0.00,WeatherDisplay:10.37,2013-06-18 21:10:00,
2013-06-18 22:20:00,54.9,44.9,29.84,WNW,286,3.0,5.0,69,0.00,CLR,,0.00,WeatherDisplay:10.37,2013-06-18 21:20:00,
2013-06-18 22:30:00,54.0,44.1,29.84,West,278,1.0,4.0,69,0.00,CLR,,0.00,WeatherDisplay:10.37,2013-06-18 21:30:00,
2013-06-18 22:40:00,53.2,43.3,29.84,WNW,285,2.0,3.0,69,0.00,CLR,,0.00,WeatherDisplay:10.37,2013-06-18 21:40:00,
2013-06-18 22:50:00,52.7,43.2,29.84,WNW,301,3.0,4.0,70,0.00,CLR,,0.00,WeatherDisplay:10.37,2013-06-18 21:50:00,
2013-06-18 23:00:00,52.4,44.0,29.84,West,280,2.0,5.0,73,0.00,CLR,,0.00,WeatherDisplay:10.37,2013-06-18 22:00:00,
2013-06-18 23:10:00,52.0,43.6,29.84,West,259,2.0,6.0,73,0.00,CLR,,0.00,WeatherDisplay:10.37,2013-06-18 22:10:00,
2013-06-18 23:20:00,52.3,44.6,29.83,WNW,284,5.0,9.0,75,0.00,CLR,,0.00,WeatherDisplay:10.37,2013-06-18 22:20:00,
2013-06-18 23:30:00,53.1,45.3,29.83,West,280,6.0,11.0,75,0.00,CLR,,0.00,WeatherDisplay:10.37,2013-06-18 22:30:00,
2013-06-18 23:40:00,53.2,45.2,29.83,WSW,256,2.0,12.0,74,0.00,CLR,,0.00,WeatherDisplay:10.37,2013-06-18 22:40:00,
2013-06-18 23:50:00,52.9,44.4,29.83,WSW,249,2.0,5.0,73,0.00,CLR,,0.00,WeatherDisplay:10.37,2013-06-18 22:50:00,